25 września 2022

Czas Kod Pogoda Temp. Widoczność Sufit Wiatr METAR/SPECI
21:50
V
9 °C 10 km+ - 260° 260° 3 kt METAR EDHI 251950Z AUTO 26003KT 230V290 9999 // NCD 09/09 Q1009
21:20
V
9 °C 10 km+ - 260° 260° 3 kt METAR EDHI 251920Z AUTO 26003KT 9999 // NCD 09/09 Q1009
20:50
V
10 °C 10 km+ - 240° 240° 5 kt METAR EDHI 251850Z AUTO 24005KT 9999 // NCD 10/10 Q1010
20:20
V
9 °C 10 km+ - 250° 250° 4 kt METAR EDHI 251820Z AUTO 25004KT 9999 // NCD 09/08 Q1010
19:50
V
12 °C 10 km+ - 290° 290° 7 kt METAR EDHI 251750Z AUTO 29007KT 260V320 9999 // NCD 12/10 Q1010
19:20
V
13 °C 10 km+ - 280° 280° 8 kt METAR EDHI 251720Z AUTO 28008KT 9999 // NCD 13/09 Q1010
18:50
V
14 °C 10 km+ - 290° 290° 6 kt METAR EDHI 251650Z AUTO 29006KT 9999 // FEW083/// 14/10 Q1010
18:20
V
14 °C 10 km+ - 290° 290° 8 kt METAR EDHI 251620Z AUTO 29008KT 9999 // FEW082/// 14/09 Q1010
17:50
V
15 °C 10 km+ 8.300 ft 290° 290° 8 kt METAR EDHI 251550Z AUTO 29008KT 9999 // BKN083/// 15/09 Q1010
17:20
V
15 °C 10 km+ 8.400 ft 290° 290° 7 kt METAR EDHI 251520Z AUTO 29007KT 9999 // FEW023/// BKN084/// 15/09 Q1010
16:50
V
15 °C 10 km+ 7.600 ft 310° 310° 6 kt METAR EDHI 251450Z AUTO 31006KT 270V340 9999 // OVC076/// 15/12 Q1011
16:20
V
14 °C 10 km+ 7.000 ft 300° 300° 5 kt METAR EDHI 251420Z AUTO 30005KT 270V340 9999 // FEW059/// OVC070/// 14/12 Q1011
15:50
V
13 °C 10 km+ 5.300 ft 290° 290° 5 kt METAR EDHI 251350Z AUTO 29005KT 9999 // OVC053/// 13/12 Q1011
15:20
V
13 °C 10 km+ 4.600 ft 310° 310° 5 kt METAR EDHI 251320Z AUTO 31005KT 270V330 9999 // OVC046/// 13/13 Q1011
14:50
V
13 °C 10 km+ 4.300 ft 300° 300° 5 kt METAR EDHI 251250Z AUTO 30005KT 270V350 9999 // OVC043/// 13/13 Q1012
14:20
V
13 °C 10 km+ 3.500 ft 320° 320° 5 kt METAR EDHI 251220Z AUTO 32005KT 290V350 9999 // FEW009/// OVC035/// 13/12 Q1012
13:50
V
13 °C 10 km+ 3.200 ft 300° 300° 6 kt METAR EDHI 251150Z AUTO 30006KT 270V330 9999 // FEW009/// SCT028/// OVC032/// 13/12 Q1012
13:20
M
12 °C 9 km 2.400 ft 300° 300° 5 kt METAR EDHI 251120Z AUTO 30005KT 270V330 9000 // FEW007/// BKN024/// OVC027/// 12/12 Q1012
12:50
I
12 °C 4,7 km 2.300 ft 310° 310° 4 kt METAR EDHI 251050Z AUTO 31004KT 280V350 4700 // SCT006/// OVC023/// 12/12 Q1012
12:20
I
12 °C 10 km+ 700 ft 310° 310° 6 kt METAR EDHI 251020Z AUTO 31006KT 9999 // FEW005/// BKN007/// OVC019/// 12/12 Q1012
11:50
M
13 °C 9 km 1.600 ft 330° 330° 6 kt METAR EDHI 250950Z AUTO 33006KT 300V010 9000 // SCT005/// OVC016/// 13/12 Q1012
11:20
I
12 °C 5 km 500 ft 330° 330° 5 kt METAR EDHI 250920Z AUTO 33005KT 290V010 5000 // BKN005/// OVC020/// 12/12 Q1012
10:50
L
12 °C 6 km 400 ft 320° 320° 6 kt METAR EDHI 250850Z AUTO 32006KT 290V350 6000 // BKN004/// BKN013/// OVC021/// 12/12 Q1012
10:20
L
12 °C 9 km 400 ft 310° 310° 5 kt METAR EDHI 250820Z AUTO 31005KT 280V350 9000 // BKN004/// OVC013/// 12/12 Q1012
09:50
L
12 °C 3,7 km 400 ft 350° 350° 6 kt METAR EDHI 250750Z AUTO 35006KT 310V010 3700 // BKN004/// OVC012/// 12/12 Q1012
09:20
I
12 °C 10 km+ 500 ft 350° 350° 6 kt METAR EDHI 250720Z AUTO 35006KT 9999 // OVC005/// 12/12 Q1012
08:50
I
12 °C 10 km+ 700 ft 350° 350° 5 kt METAR EDHI 250650Z AUTO 35005KT 9999 // SCT005/// OVC007/// 12/12 Q1012
08:20
I
12 °C 9 km 500 ft 360° 360° 5 kt METAR EDHI 250620Z AUTO 36005KT 9000 // OVC005/// 12/12 Q1011
07:50
L
12 °C 6 km 400 ft 350° 350° 5 kt METAR EDHI 250550Z AUTO 35005KT 6000 // OVC004/// 12/12 Q1012
07:20
L
12 °C 5 km 300 ft 350° 350° 5 kt METAR EDHI 250520Z AUTO 35005KT 5000 // OVC003/// 12/12 Q1012
06:50
L
12 °C 4,4 km 300 ft 010° 010° 3 kt METAR EDHI 250450Z AUTO 01003KT 4400 // OVC003/// 12/12 Q1012
06:20
I
13 °C 4,2 km 500 ft 020° 020° 3 kt METAR EDHI 250420Z AUTO 02003KT 4200 // BKN005/// OVC024/// 13/12 Q1012
05:50
L
12 °C 5 km 400 ft 030° 030° 3 kt METAR EDHI 250350Z AUTO 03003KT 5000 // BKN004/// OVC012/// 12/12 Q1012
05:20
L
12 °C 4,6 km 400 ft 030° 030° 4 kt METAR EDHI 250320Z AUTO 03004KT 4600 // BKN004/// BKN016/// OVC050/// 12/12 Q1012
04:50
L
12 °C 4,8 km 400 ft 030° 030° 3 kt METAR EDHI 250250Z AUTO 03003KT 4800 // BKN004/// BKN016/// OVC028/// 12/12 Q1012
04:20
M
13 °C 5 km 1.700 ft 050° 050° 3 kt METAR EDHI 250220Z AUTO 05003KT 020V080 5000 // SCT005/// BKN017/// OVC028/// 13/12 Q1012
03:50
I
13 °C 4,9 km 1.700 ft 040° 040° 3 kt METAR EDHI 250150Z AUTO 04003KT 4900 // FEW003/// OVC017/// 13/13 Q1012
03:20
I
13 °C 5 km 500 ft 030° 030° 3 kt METAR EDHI 250120Z AUTO 03003KT 5000 // SCT003/// BKN005/// OVC017/// 13/12 Q1012
02:50
L
13 °C 4,8 km 400 ft 050° 050° 4 kt METAR EDHI 250050Z AUTO 05004KT 4800 // OVC004/// 13/12 Q1012
02:20
I
13 °C 5 km 500 ft 040° 040° 4 kt METAR EDHI 250020Z AUTO 04004KT 5000 // BKN005/// OVC016/// 13/13 Q1012
01:50
L
13 °C 4,7 km 400 ft 060° 060° 3 kt METAR EDHI 242350Z AUTO 06003KT 040V100 4700 // BKN004/// BKN008/// OVC015/// 13/13 Q1012
01:20
M
13 °C 5 km 3.300 ft 040° 040° 4 kt METAR EDHI 242320Z AUTO 04004KT 5000 // FEW005/// SCT008/// OVC033/// 13/12 Q1012
00:50
I
13 °C 4,3 km 700 ft 050° 050° 5 kt METAR EDHI 242250Z AUTO 05005KT 4300 // SCT004/// BKN007/// OVC033/// 13/13 Q1012
00:20
I
12 °C 3,4 km 500 ft 060° 060° 3 kt METAR EDHI 242220Z AUTO 06003KT 3400 // BKN005/// BKN032/// OVC097/// 12/12 Q1012

24 września 2022

Czas Kod Pogoda Temp. Widoczność Sufit Wiatr METAR/SPECI
23:50
I
13 °C 4 km 9.500 ft 060° 060° 2 kt METAR EDHI 242150Z AUTO 06002KT 4000 // FEW007/// SCT033/// OVC095/// 13/12 Q1012
23:20
I
13 °C 4,6 km 9.400 ft 080° 080° 2 kt METAR EDHI 242120Z AUTO 08002KT 4600 // FEW006/// OVC094/// 13/13 Q1012
22:50
I
12 °C 4,4 km 9.500 ft 110° 110° 2 kt METAR EDHI 242050Z AUTO 11002KT 4400 // FEW006/// OVC095/// 12/12 Q1012
22:20
I
13 °C 4,7 km 10.000 ft 090° 090° 3 kt METAR EDHI 242020Z AUTO 09003KT 060V120 4700 // FEW006/// SCT017/// OVC100/// 13/13 Q1012
21:50
I
13 °C 4,8 km 9.900 ft 100° 100° 3 kt METAR EDHI 241950Z AUTO 10003KT 4800 // FEW005/// SCT016/// OVC099/// 13/13 Q1012
21:20
I
13 °C 4,1 km 7.600 ft Var Var 2 kt METAR EDHI 241920Z AUTO VRB02KT 4100 // SCT005/// BKN076/// OVC098/// 13/13 Q1012
20:50
I
13 °C 4 km 7.700 ft 090° 090° 2 kt METAR EDHI 241850Z AUTO 09002KT 4000 // SCT006/// BKN077/// OVC100/// 13/13 Q1012
20:20
I
12 °C 4 km 10.000 ft Var Var 2 kt METAR EDHI 241820Z AUTO VRB02KT 4000 // SCT007/// OVC100/// 12/12 Q1012
19:50
I
13 °C 4,8 km 3.500 ft Var Var 2 kt METAR EDHI 241750Z AUTO VRB02KT 4800 // FEW006/// BKN035/// OVC092/// 13/13 Q1012
19:20
I
13 °C 4,1 km 3.300 ft 110° 110° 3 kt METAR EDHI 241720Z AUTO 11003KT 070V150 4100 // FEW007/// BKN033/// OVC097/// 13/13 Q1012
18:50
I
14 °C 4,3 km 3.200 ft Var Var 2 kt METAR EDHI 241650Z AUTO VRB02KT 4300 // OVC032/// 14/13 Q1012
18:20
M
14 °C 5 km 3.200 ft 110° 110° 2 kt METAR EDHI 241620Z AUTO 11002KT 5000 // SCT028/// OVC032/// 14/14 Q1012
17:50
M
14 °C 7 km 3.100 ft 130° 130° 3 kt METAR EDHI 241550Z AUTO 13003KT 7000 // FEW007/// SCT024/// OVC031/// 14/14 Q1012
17:20
M
14 °C 6 km 1.100 ft Var Var 2 kt METAR EDHI 241520Z AUTO VRB02KT 6000 // FEW009/// BKN011/// OVC033/// 14/14 Q1012
16:50
M
14 °C 8 km 1.400 ft Var Var 2 kt METAR EDHI 241450Z AUTO VRB02KT 8000 // FEW009/// SCT012/// OVC014/// 14/14 Q1012
16:20
M
14 °C 8 km 1.100 ft Var Var 2 kt METAR EDHI 241420Z AUTO VRB02KT 8000 // FEW009/// BKN011/// OVC020/// 14/14 Q1012
15:50
M
14 °C 8 km 1.200 ft 150° 150° 3 kt METAR EDHI 241350Z AUTO 15003KT 110V170 8000 // FEW007/// SCT010/// OVC012/// 14/14 Q1012
15:20
I
14 °C 8 km 900 ft 150° 150° 3 kt METAR EDHI 241320Z AUTO 15003KT 100V190 8000 // FEW007/// BKN009/// OVC018/// 14/14 Q1012
14:50
I
13 °C 6 km 800 ft Var Var 2 kt METAR EDHI 241250Z AUTO VRB02KT 6000 // OVC008/// 13/13 Q1012
14:20
I
14 °C 7 km 900 ft 160° 160° 3 kt METAR EDHI 241220Z AUTO 16003KT 110V200 7000 // OVC009/// 14/13 Q1012
13:50
I
13 °C 7 km 900 ft 150° 150° 3 kt METAR EDHI 241150Z AUTO 15003KT 100V200 7000 // OVC009/// 13/13 Q1012
13:20
M
13 °C 6 km 1.100 ft 160° 160° 3 kt METAR EDHI 241120Z AUTO 16003KT 110V200 6000 // SCT008/// BKN011/// OVC013/// 13/13 Q1012
12:50
I
13 °C 3,9 km 800 ft 160° 160° 3 kt METAR EDHI 241050Z AUTO 16003KT 130V210 3900 // OVC008/// 13/13 Q1012
12:20
I
13 °C 6 km 800 ft 140° 140° 4 kt METAR EDHI 241020Z AUTO 14004KT 090V190 6000 // FEW006/// OVC008/// 13/13 Q1012
11:50
M
13 °C 6 km 1.100 ft 130° 130° 3 kt METAR EDHI 240950Z AUTO 13003KT 060V190 6000 // SCT009/// BKN011/// OVC030/// 13/13 Q1012
11:20
I
12 °C 5 km 900 ft 110° 110° 3 kt METAR EDHI 240920Z AUTO 11003KT 070V150 5000 // BKN009/// BKN023/// OVC032/// 12/12 Q1012
10:50
I
12 °C 4,4 km 900 ft 130° 130° 3 kt METAR EDHI 240850Z AUTO 13003KT 100V160 4400 // BKN009/// BKN012/// OVC027/// 12/12 Q1012
10:20
I
12 °C 4,3 km 1.500 ft 120° 120° 4 kt METAR EDHI 240820Z AUTO 12004KT 090V150 4300 // FEW010/// BKN015/// OVC028/// 12/12 Q1012
09:50
M
12 °C 5 km 1.600 ft 120° 120° 3 kt METAR EDHI 240750Z AUTO 12003KT 090V180 5000 // FEW009/// OVC016/// 12/12 Q1012
09:20
I
12 °C 3,2 km 1.500 ft 120° 120° 3 kt METAR EDHI 240720Z AUTO 12003KT 080V160 3200 // SCT006/// OVC015/// 12/12 Q1012
08:50
I
11 °C 2,8 km 1.700 ft 120° 120° 3 kt METAR EDHI 240650Z AUTO 12003KT 070V150 2800 // FEW008/// OVC017/// 11/11 Q1012
08:20
I
11 °C 3,6 km 2.000 ft 120° 120° 3 kt METAR EDHI 240620Z AUTO 12003KT 060V160 3600 // FEW012/// BKN020/// OVC023/// 11/11 Q1012
07:50
I
11 °C 4,3 km 2.500 ft Var Var 2 kt METAR EDHI 240550Z AUTO VRB02KT 4300 // FEW018/// BKN025/// OVC031/// 11/11 Q1011
07:20
M
11 °C 5 km 1.800 ft Var Var 2 kt METAR EDHI 240520Z AUTO VRB02KT 5000 // BKN018/// BKN024/// OVC030/// 11/11 Q1011
06:50
M
11 °C 5 km 2.000 ft Var Var 2 kt METAR EDHI 240450Z AUTO VRB02KT 5000 // OVC020/// 11/11 Q1012
06:20
M
11 °C 6 km 7.000 ft Var Var 2 kt METAR EDHI 240420Z AUTO VRB02KT 6000 // FEW020/// OVC070/// 11/11 Q1012
05:50
V
11 °C 9 km 7.500 ft Var Var 2 kt METAR EDHI 240350Z AUTO VRB02KT 9000 // SCT029/// SCT064/// OVC075/// 11/11 Q1012
05:20
V
12 °C 10 km+ 7.700 ft 200° 200° 3 kt METAR EDHI 240320Z AUTO 20003KT 9999 // FEW044/// BKN077/// OVC087/// 12/11 Q1012
04:50
V
12 °C 10 km+ 8.800 ft 220° 220° 3 kt METAR EDHI 240250Z AUTO 22003KT 9999 // BKN088/// OVC100/// 12/11 Q1012
04:20
V
11 °C 10 km+ 10.000 ft Var Var 2 kt METAR EDHI 240220Z AUTO VRB02KT 9999 // OVC100/// 11/11 Q1012
03:50
V
12 °C 10 km+ 9.700 ft 210° 210° 4 kt METAR EDHI 240150Z AUTO 21004KT 9999 // BKN097/// OVC110/// 12/11 Q1012
03:20
V
12 °C 10 km+ 9.900 ft 200° 200° 4 kt METAR EDHI 240120Z AUTO 20004KT 9999 // OVC099/// 12/11 Q1012
02:50
V
12 °C 10 km+ 10.000 ft 210° 210° 3 kt METAR EDHI 240050Z AUTO 21003KT 9999 // OVC100/// 12/10 Q1012
02:20
V
12 °C 10 km+ 10.000 ft 250° 250° 3 kt METAR EDHI 240020Z AUTO 25003KT 9999 // BKN100/// OVC140/// 12/11 Q1013
01:50
V
12 °C 10 km+ 10.000 ft Var Var 1 kt METAR EDHI 232350Z AUTO VRB01KT 9999 // BKN100/// OVC140/// 12/11 Q1013
01:20
V
12 °C 10 km+ 10.000 ft 220° 220° 2 kt METAR EDHI 232320Z AUTO 22002KT 9999 // FEW058/// OVC100/// 12/11 Q1013
00:50
V
13 °C 10 km+ 10.000 ft Var 000° 0 kt METAR EDHI 232250Z AUTO 00000KT 9999 // FEW058/// OVC100/// 13/09 Q1013
00:20
V
13 °C 10 km+ 15.000 ft 060° 060° 1 kt METAR EDHI 232220Z AUTO 06001KT 9999 // FEW076/// OVC150/// 13/10 Q1013

23 września 2022

Czas Kod Pogoda Temp. Widoczność Sufit Wiatr METAR/SPECI
23:50
V
13 °C 10 km+ 7.500 ft Var 000° 0 kt METAR EDHI 232150Z AUTO 00000KT 9999 // BKN075/// OVC160/// 13/10 Q1013
23:20
V
13 °C 10 km+ 7.600 ft Var Var 1 kt METAR EDHI 232120Z AUTO VRB01KT 9999 // OVC076/// 13/10 Q1013
22:50
V
13 °C 10 km+ 7.600 ft Var Var 2 kt METAR EDHI 232050Z AUTO VRB02KT 9999 // OVC076/// 13/10 Q1013
22:20
V
13 °C 10 km+ 7.700 ft Var 000° 0 kt METAR EDHI 232020Z AUTO 00000KT 9999 // OVC077/// 13/10 Q1013
21:50
V
14 °C 10 km+ 7.300 ft 200° 200° 3 kt METAR EDHI 231950Z AUTO 20003KT 9999 // OVC073/// 14/10 Q1013
21:20
V
14 °C 10 km+ 7.200 ft Var Var 2 kt METAR EDHI 231920Z AUTO VRB02KT 9999 // FEW063/// BKN072/// OVC088/// 14/10 Q1014
20:50
V
14 °C 10 km+ - 200° 200° 4 kt METAR EDHI 231850Z 20004KT CAVOK 14/09 Q1014
20:20
V
14 °C 10 km+ - 180° 180° 3 kt METAR EDHI 231820Z 18003KT 140V220 CAVOK 14/09 Q1014
19:50
V
16 °C 10 km+ - 150° 150° 3 kt METAR EDHI 231750Z 15003KT 130V190 CAVOK 16/09 Q1014
19:20
V
15 °C 10 km+ - 170° 170° 3 kt METAR EDHI 231720Z 17003KT 140V220 CAVOK 15/09 Q1014
18:50
V
16 °C 10 km+ - 190° 190° 3 kt METAR EDHI 231650Z 19003KT 140V220 CAVOK 16/09 Q1014
18:20
V
16 °C 10 km+ - 190° 190° 4 kt METAR EDHI 231620Z 19004KT CAVOK 16/08 Q1014
17:50
V
16 °C 10 km+ - 190° 190° 4 kt METAR EDHI 231550Z 19004KT CAVOK 16/09 Q1014
17:20
V
17 °C 10 km+ - 200° 200° 6 kt METAR EDHI 231520Z 20006KT CAVOK 17/08 Q1014
16:50
V
17 °C 10 km+ - 200° 200° 6 kt METAR EDHI 231450Z 20006KT CAVOK 17/07 Q1014
Starsze dane

My i osoby trzecie śledzimy twoje zachowanie w internecie na naszej stronie za pomocą plików cookie. Jeśli kontynuujesz, zakładamy, że zgadzasz się z naszą polityką plików cookie. Dowiedz się więcej